Date,TemperatureHighF,TemperatureAvgF,TemperatureLowF,DewpointHighF,DewpointAvgF,DewpointLowF,HumidityHigh,HumidityAvg,HumidityLow,PressureMaxIn,PressureMinIn,WindSpeedMaxMPH,WindSpeedAvgMPH,GustSpeedMaxMPH,PrecipitationSumIn
2013-1-1,36.7,32.8,22.1,18.8,14.0,2.3,49,46,40,30.06,29.89,21,5,21,0.00
2013-1-2,28.0,22.0,14.5,9.7,4.7,-1.9,50,47,42,30.21,30.04,14,2,14,0.00
2013-1-3,28.9,19.3,7.9,10.7,2.8,-6.9,51,48,43,30.24,30.09,10,2,10,0.00
2013-1-4,37.0,29.9,21.2,18.7,13.6,6.0,58,50,45,30.09,29.98,15,4,15,0.00
2013-1-5,41.5,31.9,24.6,20.7,13.8,9.9,57,47,41,30.33,30.01,23,3,23,0.04
2013-1-6,43.3,33.5,26.1,26.5,19.1,12.9,63,56,45,30.27,30.04,14,2,14,0.00
2013-1-7,45.9,33.1,23.7,25.4,18.2,11.0,67,55,43,30.45,30.09,15,2,15,0.00
2013-1-8,45.9,32.8,22.3,26.8,18.6,10.9,70,56,43,30.48,30.39,14,2,14,0.00
2013-1-9,42.4,34.2,23.9,28.7,22.9,14.9,70,63,54,30.45,30.18,12,2,12,0.00
2013-1-10,46.9,38.8,31.1,26.3,18.4,13.2,54,44,37,30.63,30.24,15,3,15,0.00
2013-1-11,36.9,32.6,27.1,32.9,22.1,13.6,88,66,49,30.60,30.21,4,0,4,0.39
2013-1-12,43.7,39.6,36.1,42.6,38.0,32.9,97,94,88,30.24,30.15,2,0,2,0.08
2013-1-13,46.2,42.4,38.1,46.0,42.1,37.6,100,99,97,30.21,30.06,8,0,8,0.00
2013-1-14,53.1,45.1,34.3,52.9,38.9,20.7,100,81,51,30.36,29.98,15,2,15,0.04
2013-1-15,36.3,33.8,31.6,23.1,20.2,17.7,66,57,51,30.42,30.27,10,2,10,0.04
2013-1-16,33.3,31.8,30.0,31.1,26.2,17.8,95,80,55,30.30,29.89,5,0,5,0.00
2013-1-17,42.3,34.6,28.4,32.1,22.4,12.6,97,63,45,30.15,29.95,15,2,15,0.24
2013-1-18,28.6,23.5,19.8,12.6,4.4,-0.7,51,43,38,30.51,30.09,18,4,18,0.00
2013-1-19,42.8,35.5,24.1,22.0,15.5,4.1,48,44,41,30.42,29.98,15,3,15,0.04
2013-1-20,50.4,39.6,26.4,26.8,18.2,4.5,50,42,34,30.06,29.74,22,6,22,0.00
2013-1-21,29.3,25.4,20.8,9.5,5.5,-0.4,49,42,37,30.15,29.86,15,2,15,0.00
2013-1-22,26.1,17.5,9.7,9.5,-0.7,-10.4,59,44,38,30.21,29.86,20,6,20,0.00
2013-1-23,18.3,11.2,7.0,-2.0,-8.9,-12.8,41,39,38,30.27,30.15,11,4,13,0.00
2013-1-24,25.9,12.1,3.7,5.4,-7.5,-15.7,46,40,39,30.39,30.18,4,4,7,0.00
2013-1-25,23.5,16.3,9.0,6.2,-1.7,-9.5,48,44,42,30.42,30.12,4,4,7,0.00
2013-1-26,33.1,19.0,12.6,15.5,1.8,-3.0,51,47,42,30.39,30.09,4,4,7,0.00
2013-1-27,45.9,21.0,10.4,25.2,1.7,-7.2,51,43,37,30.57,30.39,4,4,7,0.00
2013-1-28,31.8,25.5,18.1,16.2,8.5,-2.0,52,48,40,30.54,30.06,4,4,7,0.00
2013-1-29,36.3,34.2,31.8,22.1,19.8,16.2,56,55,52,30.24,30.06,4,4,7,0.12
2013-1-30,51.3,42.8,34.3,39.7,29.8,20.3,65,60,56,30.18,28.82,4,4,7,0.04
2013-1-31,55.4,44.8,31.1,46.7,33.1,16.8,73,63,55,29.15,28.50,4,4,7,1.02
2013-2-1,31.1,26.5,21.6,16.8,12.4,7.0,57,55,52,29.59,29.15,4,4,7,0.00
2013-2-2,34.9,23.8,17.8,20.8,9.7,4.7,58,54,51,29.68,29.47,4,4,7,0.00
2013-2-3,33.1,24.3,18.7,20.3,11.4,6.3,59,57,54,29.47,29.21,4,4,7,0.00
2013-2-4,30.0,23.5,19.9,17.0,10.6,7.4,59,57,54,29.39,29.18,4,4,7,0.00
2013-2-5,27.9,25.3,20.7,15.0,12.6,7.4,59,58,56,29.42,29.33,4,4,7,0.00
2013-2-6,35.8,29.2,25.3,24.1,16.9,12.4,63,60,56,29.74,29.33,4,4,7,0.08
2013-2-7,32.2,25.1,19.4,19.4,12.5,7.2,60,58,57,29.92,29.74,4,4,7,0.00
2013-2-8,30.2,28.3,25.2,18.7,16.6,12.8,62,61,59,29.80,29.06,4,4,7,0.00
2013-2-9,28.6,25.9,25.2,17.2,15.6,14.7,65,64,62,29.39,29.15,4,4,7,0.00
2013-2-10,25.7,25.7,25.7,15.6,15.6,15.6,65,65,65,29.39,29.39,4,4,7,0.00
2013-2-11,37.2,31.6,25.7,26.2,20.6,15.6,65,63,60,29.50,29.09,4,1,7,0.35
2013-2-12,40.1,36.1,34.2,28.5,24.5,21.3,65,62,58,29.39,29.12,0,0,0,0.00
2013-2-13,45.9,34.3,27.5,34.4,22.3,15.4,65,61,59,29.36,29.12,0,0,0,0.00
2013-2-14,46.0,35.0,29.1,35.1,23.6,18.1,67,63,60,29.42,29.15,0,0,0,0.04
2013-2-15,52.5,38.0,30.7,41.5,26.6,19.2,68,63,58,29.42,29.33,0,0,0,0.00
2013-2-16,43.0,34.8,29.8,32.0,23.4,18.4,66,63,60,29.39,29.15,0,0,0,0.04
2013-2-17,33.8,25.6,16.5,20.4,12.6,0.9,62,57,50,29.33,29.03,0,0,0,0.00
2013-2-18,37.6,23.2,14.0,22.3,7.5,-0.7,55,51,47,29.62,29.33,0,0,0,0.00
2013-2-19,39.4,32.3,23.0,25.4,18.1,9.0,59,56,49,29.62,29.09,0,0,0,0.28
2013-2-20,36.5,29.6,23.2,23.5,15.2,7.3,59,55,50,29.36,29.09,0,0,0,0.00
2013-2-21,39.4,26.8,21.4,24.1,11.5,6.6,56,52,48,29.71,29.33,0,0,0,0.00
2013-2-22,37.9,28.9,20.8,23.9,14.7,6.8,57,55,50,29.83,29.68,0,0,0,0.00
2013-2-23,36.9,34.4,32.7,23.4,21.0,18.7,59,58,56,29.71,29.27,0,0,0,0.12
2013-2-24,40.6,35.9,32.4,28.6,23.8,20.4,63,61,59,29.39,29.18,0,0,0,0.04
2013-2-25,49.6,36.4,29.1,37.8,24.0,17.7,66,61,55,29.68,29.39,0,0,0,0.00
2013-2-26,41.0,34.1,27.5,29.7,22.3,15.6,65,62,58,29.74,29.42,0,0,0,0.08
2013-2-27,41.2,37.6,33.6,31.4,27.4,22.1,69,67,62,29.42,28.97,0,0,0,1.54
2013-2-28,45.0,38.1,33.1,36.3,29.0,24.2,73,69,66,29.06,28.97,0,0,0,0.00
2013-3-1,42.4,37.3,33.8,33.0,27.7,24.5,72,68,65,29.18,29.00,0,0,0,0.00
2013-3-2,37.9,34.5,31.5,28.0,24.2,20.7,68,66,63,29.18,29.09,0,0,0,0.00
2013-3-3,35.8,31.2,28.4,25.2,20.5,18.1,66,64,61,29.15,29.06,0,0,0,0.00
2013-3-4,42.8,32.4,26.4,30.2,20.0,15.3,64,60,55,29.30,29.15,0,0,0,0.00
2013-3-5,55.8,38.5,27.9,42.9,24.9,15.3,65,58,53,29.44,29.30,0,0,0,0.00
2013-3-6,40.3,37.5,35.4,29.1,25.6,23.1,64,62,56,29.42,29.33,0,0,0,0.00
2013-3-7,36.1,34.3,32.7,25.5,23.7,22.2,66,65,64,29.50,29.36,0,0,0,0.00
2013-3-8,35.8,33.4,30.9,25.9,23.5,20.9,68,67,66,29.59,29.42,0,0,0,0.00
2013-3-9,51.4,37.6,30.2,39.6,26.8,20.4,70,65,59,29.74,29.59,0,0,0,0.24
2013-3-10,56.5,38.4,26.1,44.4,26.5,15.9,70,62,53,29.80,29.71,0,0,0,0.00
2013-3-11,54.3,43.5,36.3,41.1,30.5,23.3,64,60,56,29.74,29.53,0,0,0,0.00
2013-3-12,52.0,48.6,45.3,42.9,38.2,33.8,72,67,61,29.53,29.12,0,0,0,1.10
2013-3-13,50.7,40.8,34.0,36.1,25.3,16.8,74,56,34,29.30,29.18,0,0,0,0.00
2013-3-14,35.6,30.8,25.7,20.0,10.4,5.0,55,42,37,29.33,29.24,0,0,0,0.00
2013-3-15,41.9,33.0,25.0,21.9,12.4,3.5,54,42,36,29.36,29.12,0,0,0,0.00
2013-3-16,38.5,32.8,28.9,20.9,16.5,11.2,66,51,39,29.33,29.18,0,0,0,0.00
2013-3-17,38.5,30.6,24.4,20.2,13.0,5.5,69,49,36,29.71,29.33,0,0,0,0.00
2013-3-18,36.9,29.0,21.9,16.6,8.3,1.2,59,41,37,29.83,29.50,0,0,0,0.00
2013-3-19,39.2,33.3,29.1,35.0,26.6,16.6,92,76,59,29.50,29.12,0,0,0,0.35
2013-3-20,43.7,33.8,27.0,23.6,14.6,10.4,66,45,35,29.27,29.18,0,0,0,0.00
2013-3-21,40.8,33.1,29.5,19.7,14.1,7.1,60,46,36,29.27,29.06,0,0,0,0.00
2013-3-22,39.9,31.7,25.0,17.9,11.4,4.3,49,43,38,29.27,29.12,0,0,0,0.00
2013-3-23,46.6,36.5,31.1,21.7,15.2,10.2,46,42,35,29.33,29.21,0,0,0,0.00
2013-3-24,52.7,37.1,27.7,26.3,15.3,8.1,48,41,34,29.36,29.15,0,0,0,0.00
2013-3-25,45.9,38.4,32.5,24.6,19.4,15.7,52,46,40,29.15,28.88,0,0,0,0.00
2013-3-26,53.6,40.6,32.7,28.4,19.9,14.2,53,44,35,29.27,29.00,0,0,0,0.00
2013-3-27,54.0,40.2,27.7,27.4,18.8,13.1,57,43,33,29.36,29.27,0,0,0,0.00
2013-3-28,52.2,40.7,32.0,29.1,22.1,14.7,55,48,39,29.50,29.36,0,0,0,0.00
2013-3-29,46.8,43.2,33.3,26.5,24.6,19.4,58,48,45,29.56,29.50,0,0,0,0.00
2013-3-30,46.8,46.8,46.8,26.5,26.5,26.5,45,45,45,29.53,29.53,0,0,0,0.00
2013-3-31,46.8,46.8,46.8,26.5,26.5,26.5,45,45,45,29.53,29.53,0,0,0,0.00
2013-4-1,46.8,46.8,46.8,26.5,26.5,26.5,45,45,45,29.53,29.53,0,0,0,0.00
2013-4-2,46.8,46.8,46.8,26.5,26.5,26.5,45,45,45,29.53,29.53,0,0,0,0.00
2013-4-3,46.8,46.8,46.8,26.5,26.5,26.5,45,45,45,29.53,29.53,0,0,0,0.00
2013-4-4,46.8,46.2,37.9,29.1,25.6,-99.9,70,45,45,30.12,29.53,4,-8,4,0.00
2013-4-5,62.4,52.5,39.2,25.0,19.4,15.3,45,28,18,29.99,29.72,9,3,12,0.00
2013-4-6,52.2,39.1,31.1,22.8,11.6,-99.9,59,36,14,30.33,29.99,10,-7,12,0.00
2013-4-7,55.0,44.2,33.4,41.4,32.0,22.1,89,64,41,30.32,30.02,17,2,20,0.00
2013-4-8,71.8,53.6,37.9,42.4,39.2,35.8,97,64,29,30.10,29.99,7,1,10,0.00
2013-4-9,77.2,62.4,46.9,51.6,43.5,35.8,96,56,25,30.03,29.91,11,2,14,0.02
2013-4-10,68.9,57.5,48.7,54.0,49.2,41.0,97,76,55,29.96,29.82,8,0,9,0.20
2013-4-11,57.0,51.5,45.0,55.0,47.6,38.8,98,87,71,30.09,29.80,5,0,5,0.04
2013-4-12,45.0,40.2,37.2,39.4,36.0,27.9,97,86,55,30.09,29.76,7,0,13,0.32
2013-4-13,55.2,44.3,36.1,40.3,36.2,33.3,97,76,46,29.97,29.76,5,1,7,0.08
2013-4-14,54.3,47.4,40.3,36.3,29.1,24.3,73,50,33,30.24,29.96,11,2,14,0.00
2013-4-15,60.8,46.1,34.9,34.7,30.4,25.9,81,56,33,30.40,30.24,8,1,10,0.00
2013-4-16,64.8,51.3,38.5,52.2,44.4,31.8,88,78,58,30.40,30.12,14,2,16,0.02
2013-4-17,68.7,56.6,46.9,52.7,39.2,30.6,92,57,25,30.31,30.13,6,1,8,0.00
2013-4-18,60.4,50.8,40.5,47.5,38.8,32.9,91,66,40,30.37,30.13,8,1,10,0.00
2013-4-19,73.8,61.4,51.3,62.6,57.5,47.5,98,88,66,30.13,29.66,15,3,22,0.03
2013-4-20,62.1,50.9,42.4,60.8,36.3,23.7,97,63,29,30.29,29.65,12,2,18,0.26
2013-4-21,55.6,42.8,32.5,28.0,22.6,18.1,66,47,25,30.65,30.30,7,1,7,0.00
2013-4-22,58.5,44.3,32.5,35.1,30.4,23.7,89,61,34,30.71,30.53,8,0,9,0.00
2013-4-23,48.2,41.8,35.8,40.1,35.4,29.3,89,78,71,30.54,30.13,4,0,4,0.00
2013-4-24,75.0,53.5,39.6,48.7,43.6,36.9,93,72,38,30.13,29.84,10,1,13,0.00
2013-4-25,66.2,54.0,43.2,50.9,32.5,20.5,92,49,19,30.27,29.85,8,2,13,0.00
2013-4-26,67.8,51.1,34.5,36.3,31.1,27.7,88,51,24,30.43,30.27,6,0,9,0.00
2013-4-27,72.0,54.4,37.0,34.3,29.5,21.2,74,42,16,30.45,30.28,8,0,9,0.00
2013-4-28,72.1,54.1,38.8,44.2,36.1,28.0,89,54,30,30.33,30.22,12,1,14,0.00
2013-4-29,57.4,53.2,49.1,46.8,41.5,32.7,85,65,47,30.27,30.22,7,0,7,0.00
2013-4-30,71.1,56.2,45.5,43.5,34.7,21.2,88,50,17,30.35,30.24,8,0,10,0.00
2013-5-1,73.9,54.2,36.1,43.0,35.9,27.5,86,54,26,30.50,30.35,10,0,13,0.00
2013-5-2,81.0,58.8,39.7,46.2,40.2,34.3,96,57,22,30.49,30.31,7,1,10,0.00
2013-5-3,72.1,57.7,47.8,44.4,38.1,32.7,80,50,27,30.47,30.34,7,0,10,0.00
2013-5-4,76.8,55.2,40.6,45.7,42.0,38.5,97,66,28,30.39,30.23,10,0,10,0.00
2013-5-5,72.5,51.7,39.2,43.3,39.6,36.3,95,68,30,30.32,30.22,8,0,8,0.00
2013-5-6,76.3,55.7,40.3,52.2,45.7,37.6,95,72,40,30.29,30.15,7,0,10,0.00
2013-5-7,79.3,61.0,44.4,57.2,50.8,42.4,97,72,39,30.19,30.10,7,0,8,0.00
2013-5-8,63.0,59.5,54.5,62.4,58.0,53.4,99,95,84,30.14,30.00,3,0,5,0.56
2013-5-9,60.8,56.4,52.7,59.9,55.6,52.2,99,97,91,30.03,29.90,3,0,4,0.38
2013-5-10,79.9,63.1,48.9,60.6,53.9,48.4,100,76,38,30.01,29.90,7,1,7,0.00
2013-5-11,64.9,61.2,58.5,63.0,59.6,54.7,98,95,79,29.91,29.70,8,1,11,0.33
2013-5-12,69.3,58.7,48.7,59.4,45.4,24.8,99,67,23,29.90,29.64,13,1,13,0.08
2013-5-13,55.9,46.9,37.6,34.7,30.1,24.8,87,53,34,30.11,29.90,10,1,13,0.00
2013-5-14,60.1,46.9,34.3,34.7,31.1,22.8,91,59,25,30.13,30.03,6,0,7,0.00
2013-5-15,64.2,50.8,34.9,53.4,43.8,32.2,94,78,52,30.09,29.70,10,0,13,0.02
2013-5-16,84.9,65.4,47.7,53.6,46.0,37.0,98,58,22,29.84,29.71,14,1,17,0.00
2013-5-17,73.2,59.3,50.4,48.0,42.0,37.9,77,55,29,30.22,29.84,7,0,7,0.00
2013-5-18,71.4,56.3,44.1,50.9,45.8,41.5,94,70,39,30.32,30.22,8,1,11,0.00
2013-5-19,56.5,55.4,53.6,55.8,53.5,48.7,98,94,80,30.34,30.19,3,0,4,0.03
2013-5-20,81.0,65.7,55.2,67.8,61.1,54.7,99,87,58,30.19,29.96,7,0,8,0.00
2013-5-21,90.9,73.1,58.5,71.1,65.1,57.4,99,79,47,29.98,29.82,8,1,9,0.00
2013-5-22,81.0,67.0,56.8,70.9,63.1,55.2,97,88,69,29.93,29.84,7,0,7,0.02
2013-5-23,72.9,67.1,64.8,70.3,65.7,63.0,99,95,87,29.90,29.82,6,0,9,2.39
2013-5-24,62.4,52.4,43.5,62.1,51.5,42.4,100,97,92,29.93,29.74,7,1,9,0.63
2013-5-25,48.0,43.9,41.5,45.3,42.3,40.3,99,94,85,29.96,29.86,8,2,12,0.64
2013-5-26,63.1,51.6,43.9,43.2,40.2,37.0,87,67,40,30.19,29.90,10,2,13,0.01
2013-5-27,76.6,58.4,42.1,46.4,39.7,33.4,85,55,24,30.24,30.12,8,1,12,0.00
2013-5-28,68.9,55.0,45.0,56.3,49.6,42.8,98,84,42,30.23,30.16,5,0,6,0.18
2013-5-29,81.1,66.5,56.5,70.9,62.5,55.9,100,88,66,30.16,30.00,7,0,8,0.02
2013-5-30,93.6,76.9,62.4,69.6,65.8,61.2,98,72,40,30.12,30.04,8,1,8,0.01
2013-5-31,96.3,77.3,63.3,69.8,64.9,58.6,98,70,32,30.12,29.98,6,0,13,0.00
2013-6-1,93.4,77.6,64.8,70.0,66.3,61.7,95,70,40,30.01,29.89,7,1,9,0.00
2013-6-2,90.1,77.5,68.9,72.1,68.0,65.3,89,74,51,29.91,29.74,8,1,12,0.00
2013-6-3,73.8,68.4,60.8,70.0,64.5,49.6,99,88,65,29.90,29.79,5,0,8,1.01
2013-6-4,77.4,62.1,50.2,50.5,45.8,41.0,81,58,31,30.12,29.90,10,1,10,0.00
2013-6-5,77.9,61.0,47.5,52.7,47.4,43.2,92,64,36,30.22,30.12,6,0,7,0.00
2013-6-6,69.8,59.8,50.7,57.9,53.1,46.9,97,80,54,30.17,30.05,5,0,7,0.07
2013-6-7,59.5,57.5,54.7,59.2,57.0,54.1,99,98,97,30.05,29.77,2,0,4,1.61
2013-6-8,62.2,57.7,59.4,59.2,51.1,-99.9,94,88,90,30.06,30.03,1,-45,1,2.04
2013-6-9,81.3,66.5,54.3,61.3,57.0,53.4,99,75,42,30.18,30.06,5,0,7,2.04
2013-6-10,72.1,62.3,58.6,65.8,60.1,56.5,99,93,79,30.19,29.89,4,0,5,0.51
2013-6-11,77.4,65.8,58.6,69.8,62.4,55.6,100,90,68,29.89,29.59,10,1,11,0.49
2013-6-12,75.6,65.7,56.8,56.7,54.3,51.6,89,68,47,29.86,29.66,7,1,10,0.00
2013-6-13,58.3,55.5,52.2,57.9,54.6,51.3,99,97,89,29.85,29.57,4,0,7,0.81
2013-6-14,70.5,57.8,50.4,63.3,55.3,50.0,100,92,68,29.88,29.58,4,0,4,1.24
2013-6-15,82.4,65.6,53.1,57.9,53.4,47.7,99,70,33,30.01,29.88,6,0,7,0.00
2013-6-16,78.6,66.7,52.3,63.7,57.2,50.5,97,74,46,29.99,29.75,7,0,9,0.00
2013-6-17,87.3,72.4,61.0,66.4,62.0,55.4,96,72,42,29.92,29.82,9,1,10,0.00
2013-6-18,84.4,67.8,59.4,69.4,62.9,57.6,97,85,59,29.92,29.81,3,0,4,0.04
2013-6-19,78.6,64.3,54.0,59.4,52.2,42.8,97,69,30,30.18,29.90,5,0,5,0.01
2013-6-20,84.0,65.6,50.5,58.8,53.6,48.6,97,69,33,30.27,30.18,7,0,7,0.00
2013-6-21,86.2,70.7,57.6,64.8,57.6,52.3,84,65,44,30.29,30.22,6,1,7,0.00
2013-6-22,88.0,71.1,57.4,64.2,58.0,54.1,92,65,38,30.26,30.13,7,1,9,0.00
2013-6-23,94.3,75.6,61.3,70.5,64.5,54.7,91,71,39,30.18,30.05,8,1,11,0.00
2013-6-24,95.7,78.5,66.9,73.0,68.9,63.5,97,76,41,30.07,29.92,9,0,10,0.09
2013-6-25,91.9,76.3,64.6,76.5,68.6,64.0,99,80,50,29.99,29.78,9,1,10,0.10
2013-6-26,80.2,75.1,69.3,71.8,68.8,67.1,96,81,70,29.84,29.75,6,0,7,0.01
2013-6-27,86.0,73.9,67.5,74.3,69.7,66.2,98,88,61,29.82,29.58,4,0,6,0.27
2013-6-28,83.5,73.3,69.6,74.8,70.9,68.7,98,92,68,29.58,29.47,7,1,7,0.79
2013-6-29,84.4,73.5,65.7,72.9,68.3,64.8,99,85,55,29.71,29.49,15,1,17,0.01
2013-6-30,83.7,74.4,69.3,76.8,71.6,67.8,97,91,78,29.93,29.71,11,1,13,0.00
2013-7-1,75.6,72.8,71.2,74.3,71.9,70.0,99,97,92,30.06,29.91,8,1,12,0.32
2013-7-2,82.4,75.0,71.1,76.6,73.1,70.7,99,94,79,30.17,30.06,10,1,13,0.02
2013-7-3,83.7,76.5,71.1,76.5,72.5,69.3,96,88,73,30.24,30.16,10,1,12,0.01
2013-7-4,86.7,79.4,72.9,77.5,74.2,71.6,98,85,65,30.24,30.14,12,1,12,0.00
2013-7-5,89.1,80.1,72.7,77.0,73.5,70.5,94,81,58,30.20,30.07,10,1,11,0.01
2013-7-6,88.2,80.9,73.8,76.5,73.3,71.4,94,79,59,30.12,30.01,11,1,12,0.00
2013-7-7,91.0,81.2,73.6,81.5,75.3,72.0,96,84,58,30.05,29.91,10,0,11,0.01
2013-7-8,86.9,77.9,70.2,74.5,70.0,66.7,94,78,56,30.04,29.94,9,1,12,0.02
2013-7-9,86.9,75.5,66.9,74.3,70.3,65.7,98,85,60,30.08,29.99,7,0,8,0.18
2013-7-10,83.5,76.8,70.5,78.4,73.4,69.8,98,90,79,30.02,29.79,10,1,11,1.85
2013-7-11,82.4,75.9,66.6,73.9,70.2,63.5,98,83,61,29.93,29.79,9,0,11,0.12
2013-7-12,79.5,71.4,63.7,70.3,65.6,61.9,96,83,66,30.15,29.93,7,0,7,0.11
2013-7-13,76.5,69.9,63.3,73.2,68.0,61.5,97,94,88,30.30,30.14,3,0,4,0.17
2013-7-14,89.1,79.5,72.0,76.5,73.3,71.4,99,83,58,30.33,30.22,8,1,9,0.01
2013-7-15,89.6,81.3,72.7,75.6,72.2,69.4,93,75,53,30.23,30.13,12,1,12,0.00
2013-7-16,90.1,79.5,68.2,72.3,68.5,64.2,95,72,43,30.20,30.13,14,1,15,0.00
2013-7-17,91.6,80.5,68.7,74.7,70.1,66.7,97,73,45,30.20,30.05,6,0,7,0.00
2013-7-18,91.9,81.9,72.7,77.9,73.7,69.4,99,78,53,30.07,29.95,7,1,12,0.65
2013-7-19,94.5,84.2,74.7,78.8,74.9,73.0,95,75,51,29.96,29.77,10,1,13,0.00
2013-7-20,90.3,82.3,74.1,76.3,73.0,69.1,87,74,55,29.84,29.70,10,1,15,0.01
2013-7-21,85.1,74.8,65.3,70.9,67.2,62.8,97,79,52,29.97,29.83,7,0,8,1.77
2013-7-22,82.6,73.9,66.6,74.5,70.4,65.3,97,89,75,29.98,29.82,7,0,8,0.68
2013-7-23,85.3,74.6,71.2,77.0,72.6,68.0,99,94,68,29.82,29.55,17,0,17,1.54
2013-7-24,78.3,72.4,63.3,71.6,65.9,53.1,99,81,63,29.95,29.61,12,2,13,0.05
2013-7-25,65.7,62.8,60.1,59.9,55.6,51.1,96,78,69,30.08,29.95,12,1,12,0.27
2013-7-26,76.8,67.9,60.6,66.7,62.1,59.2,97,82,62,30.06,29.99,10,1,12,0.72
2013-7-27,81.7,69.7,59.2,67.8,63.0,58.3,99,81,55,30.06,29.98,8,1,10,0.00
2013-7-28,78.1,69.5,62.6,70.0,66.1,61.2,98,89,72,30.01,29.93,11,1,11,0.22
2013-7-29,82.8,73.1,64.2,70.2,65.2,57.6,99,78,50,30.09,29.96,9,1,11,0.33
2013-7-30,77.7,67.7,57.7,61.5,58.4,55.6,94,74,50,30.16,30.09,10,1,12,0.00
2013-7-31,79.3,68.6,57.0,65.3,59.8,55.2,98,76,46,30.16,30.04,7,0,9,0.00
2013-8-1,75.9,66.4,61.2,68.9,64.1,59.5,99,93,72,30.05,29.84,10,0,11,2.92
2013-8-2,79.7,70.5,63.7,67.5,64.4,59.0,99,83,50,29.90,29.79,13,1,14,3.48
2013-8-3,76.5,67.8,62.4,69.3,64.2,59.9,98,89,72,29.91,29.83,9,1,9,1.23
2013-8-4,76.8,65.7,57.0,63.1,59.1,53.6,99,81,51,29.97,29.84,13,1,13,0.13
2013-8-5,73.8,63.1,52.9,56.7,51.6,45.5,97,70,40,30.06,29.96,12,1,15,0.01
2013-8-6,77.2,64.4,51.4,61.9,56.6,50.4,98,78,53,30.15,30.06,11,1,11,0.00
2013-8-7,62.1,58.2,56.1,58.1,56.4,55.0,98,94,86,30.17,30.14,0,0,0,0.00
2013-9-11,87.4,75.0,74.3,77.5,61.8,-99.9,84,73,72,30.03,29.97,6,-74,10,0.00
2013-9-12,84.9,73.1,66.7,75.7,70.1,66.2,98,91,69,29.98,29.68,18,0,18,2.98
2013-9-13,72.9,65.8,55.9,66.9,61.6,48.6,99,87,66,29.84,29.62,13,1,16,3.08
2013-9-14,63.9,56.6,48.9,53.8,49.0,46.0,92,76,60,30.13,29.84,12,1,15,0.00
2013-9-15,66.6,54.7,44.1,54.3,48.2,43.0,98,81,50,30.22,30.09,6,0,6,0.00
2013-9-16,66.7,58.6,52.3,55.8,52.7,46.2,97,82,61,30.27,30.04,12,1,13,0.00
2013-9-17,62.8,51.8,43.9,46.8,40.7,34.9,93,68,36,30.45,30.27,12,1,12,0.00
2013-9-18,67.8,52.5,38.8,51.6,44.6,37.8,99,78,45,30.37,30.19,6,0,8,0.00
2013-9-19,72.7,57.0,44.2,55.6,49.6,43.3,99,80,43,30.21,30.08,6,0,8,0.00
2013-9-20,75.0,59.1,45.3,61.0,53.5,44.1,99,84,46,30.12,30.01,8,0,11,0.00
2013-9-21,70.0,63.5,55.2,67.8,61.6,54.1,99,94,86,30.03,29.67,14,2,18,1.78
2013-9-22,67.3,60.4,51.3,66.4,53.5,41.4,98,79,55,29.92,29.65,11,2,14,5.95
2013-9-23,60.8,52.7,43.3,46.2,41.9,37.4,90,68,50,30.07,29.91,17,2,17,0.00
2013-9-24,67.3,52.5,39.7,50.5,43.6,38.1,96,74,42,30.07,29.88,14,1,14,0.00
2013-9-25,67.6,54.3,42.3,55.2,47.7,41.0,98,81,51,29.98,29.89,10,1,10,0.00
2013-9-26,66.0,57.7,49.3,55.0,52.3,47.8,98,83,59,30.13,29.97,7,0,8,0.00
2013-9-27,62.6,53.9,44.2,54.7,50.2,43.5,99,88,70,30.29,30.12,5,0,9,0.00
2013-9-28,70.2,56.2,45.1,55.9,51.0,44.1,99,85,53,30.36,30.27,5,0,7,0.00
2013-9-29,68.4,55.8,48.2,57.7,51.8,47.1,99,88,58,30.27,30.10,7,0,7,0.00
2013-9-30,69.3,56.5,46.9,56.7,51.0,45.9,99,84,54,30.12,29.98,7,0,7,0.00
2013-10-1,74.8,59.1,45.1,60.6,53.3,44.2,99,83,53,30.03,29.91,10,0,10,0.00
2013-10-2,77.9,63.0,51.4,64.6,57.7,50.5,99,84,59,30.02,29.91,9,1,12,0.00
2013-10-3,73.0,60.9,49.3,60.3,54.4,48.2,99,81,48,30.14,30.02,6,0,7,0.00
2013-10-4,79.3,65.1,55.2,68.4,60.6,54.3,99,87,64,30.09,29.98,12,0,12,0.00
2013-10-5,73.0,65.1,60.1,66.4,61.6,57.9,97,89,75,30.11,30.04,5,0,7,0.06
2013-10-6,64.0,61.9,60.4,63.1,61.3,59.5,99,98,97,30.14,30.07,6,0,7,1.05
2013-10-7,73.0,65.1,56.5,70.0,64.0,53.6,100,96,88,30.07,29.78,21,2,23,1.32
2013-10-8,63.0,54.0,45.9,54.0,45.4,39.7,98,75,46,30.37,29.96,16,2,17,0.02
2013-10-9,62.2,50.6,41.7,49.3,45.0,40.6,97,83,56,30.45,30.34,6,0,7,0.00
2013-10-10,61.0,53.7,46.6,54.7,49.7,44.6,95,87,77,30.34,30.14,6,0,6,0.00
2013-10-11,68.2,60.5,53.8,60.4,55.2,50.5,92,83,72,30.14,30.06,4,0,7,0.00
2013-10-12,70.3,58.5,48.0,57.6,51.1,45.5,93,77,58,30.34,30.12,7,0,14,0.00
2013-10-13,63.3,54.2,47.7,52.0,49.3,46.6,97,85,65,30.41,30.32,8,0,8,0.00
2013-10-14,64.0,51.0,41.4,53.1,46.8,40.5,99,87,59,30.40,30.26,8,0,9,0.00
2013-10-15,69.4,54.4,45.5,56.7,47.9,41.0,99,81,46,30.29,30.15,9,0,10,0.00
2013-10-16,63.1,54.3,45.3,56.8,50.5,43.9,97,87,73,30.15,29.93,3,0,4,0.00
2013-10-17,71.4,63.3,57.7,61.0,59.2,56.8,97,88,63,29.93,29.69,9,1,13,0.16
2013-10-18,64.6,58.4,46.6,61.9,49.0,41.5,97,73,44,29.98,29.65,12,2,15,0.39
2013-10-19,62.1,51.3,39.7,53.4,44.9,38.1,98,80,52,30.00,29.75,10,1,11,0.27
2013-10-20,58.8,51.4,41.5,53.6,41.8,35.4,96,72,43,30.07,29.75,11,1,14,0.33
2013-10-21,62.8,49.5,37.4,45.7,40.1,35.8,97,74,40,30.16,30.00,14,1,14,0.01
2013-10-22,64.0,51.8,43.0,51.4,46.4,40.5,99,83,56,30.01,29.74,8,1,12,0.00
2013-10-23,52.0,43.8,34.9,40.8,36.6,32.4,97,77,48,29.83,29.63,11,0,11,0.00
2013-10-24,51.3,42.8,35.1,37.9,32.2,28.2,91,68,44,29.98,29.74,15,2,15,0.00
2013-10-25,50.4,40.5,33.1,33.4,30.9,28.8,90,70,47,30.22,29.98,15,1,15,0.00
2013-10-26,52.2,42.2,30.7,35.2,31.6,28.6,97,69,43,30.22,29.91,19,2,19,0.00
2013-10-27,54.7,47.1,39.6,37.2,33.6,29.5,78,61,39,30.12,29.85,16,2,17,0.00
2013-10-28,58.6,45.3,31.8,37.2,33.7,30.0,95,67,39,30.34,30.11,11,2,17,0.00
2013-10-29,48.6,41.6,34.2,32.7,29.8,26.2,87,64,49,30.45,30.34,6,0,7,0.00
2013-10-30,54.3,43.6,34.2,48.9,38.8,30.7,94,84,69,30.37,30.21,4,0,4,0.00
2013-10-31,61.5,50.8,37.8,58.5,49.0,36.5,98,94,88,30.26,29.82,13,1,16,0.79
2013-11-1,66.0,61.4,51.4,62.2,56.9,49.5,98,86,61,29.82,29.52,22,3,22,1.50
2013-11-2,63.7,52.2,44.1,50.7,45.6,41.5,98,80,51,29.79,29.62,6,0,9,0.00
2013-11-3,45.3,40.8,32.9,42.3,32.1,18.0,95,72,54,30.47,29.79,17,3,21,0.00
2013-11-4,43.2,34.6,29.5,24.8,19.5,14.7,78,55,32,30.70,30.47,9,1,12,0.00
2013-11-5,51.8,40.2,28.8,39.7,32.5,23.9,88,74,60,30.70,30.52,11,0,11,0.00
2013-11-6,58.5,48.9,36.1,51.8,43.6,34.3,97,83,63,30.53,30.08,10,1,14,0.00
2013-11-7,61.0,52.3,36.7,56.8,49.3,31.8,97,89,69,30.08,29.73,12,2,15,0.93
2013-11-8,46.6,39.5,33.3,32.9,29.8,26.6,91,69,48,30.18,29.90,20,3,20,0.11
2013-11-9,45.5,40.7,34.7,33.1,29.3,27.0,77,64,50,30.28,30.01,9,1,12,0.00
2013-11-10,57.2,46.1,40.8,39.6,35.3,28.9,83,67,43,30.01,29.80,20,4,22,0.04
2013-11-11,50.4,45.4,37.4,33.3,29.8,27.3,71,55,42,30.19,29.95,17,3,26,0.00
2013-11-12,48.9,34.7,26.1,37.6,25.4,17.6,91,69,53,30.28,29.93,22,3,22,0.42
2013-11-13,35.2,28.5,21.4,19.8,16.4,12.0,81,62,38,30.37,30.26,13,2,15,0.00
2013-11-14,51.6,39.0,28.9,21.6,19.3,15.8,72,48,25,30.26,30.14,12,4,16,0.00
2013-11-15,57.0,41.0,29.8,28.9,24.2,16.3,79,54,26,30.25,30.16,8,1,10,0.00
2013-11-16,59.0,45.7,33.1,44.1,36.3,27.3,95,72,42,30.34,30.24,7,1,8,0.00
2013-11-17,58.5,51.4,39.7,57.6,50.5,38.5,98,97,94,30.30,29.81,11,1,13,0.07
2013-11-18,61.7,56.8,47.7,60.3,43.0,25.9,99,64,36,29.81,29.58,24,5,27,0.94
2013-11-19,47.5,40.2,31.8,29.8,24.8,20.3,63,54,45,30.37,29.75,18,5,22,0.00
2013-11-20,40.6,31.5,24.3,20.7,17.9,13.3,83,59,33,30.65,30.36,15,2,15,0.00
2013-11-21,48.0,35.0,20.5,37.4,27.1,17.6,91,74,50,30.66,30.41,9,0,9,0.00
2013-11-22,51.6,47.1,42.4,48.7,44.5,36.7,98,91,79,30.41,29.88,11,1,11,1.67
2013-11-23,51.4,39.6,27.9,47.1,26.1,10.9,86,59,38,30.03,29.88,19,5,21,0.00
2013-11-24,27.7,23.5,20.8,11.5,4.7,-4.0,61,45,26,30.34,29.96,25,7,26,0.00
2013-11-25,32.2,25.5,16.2,15.8,12.3,7.2,77,58,41,30.47,30.33,10,2,12,0.00
2013-11-26,38.8,34.1,30.9,36.1,23.5,14.5,97,67,49,30.35,29.89,9,1,10,2.97
2013-11-27,59.9,44.9,33.1,59.5,43.3,24.4,99,94,71,29.89,29.33,16,3,23,22.52
2013-11-28,33.1,28.5,23.5,24.6,15.8,10.2,78,59,43,30.48,29.67,22,5,24,0.09
2013-11-29,33.6,28.2,21.9,21.4,18.9,15.4,81,68,55,30.75,30.48,10,1,12,0.00
2013-11-30,32.4,25.9,16.9,23.4,15.8,10.0,87,67,40,30.79,30.41,8,0,9,0.00
2013-12-1,46.9,36.8,31.1,36.1,30.2,22.6,91,77,66,30.41,30.03,4,0,5,0.03
2013-12-2,41.5,33.7,28.2,36.0,31.4,27.0,96,91,80,30.03,29.92,3,0,3,0.00
2013-12-3,47.7,35.0,28.0,38.3,31.6,27.0,98,88,65,30.03,29.89,6,0,6,0.00
2013-12-4,50.4,37.2,28.2,39.0,32.8,27.1,96,85,62,30.18,30.02,5,0,7,0.00
2013-12-5,54.0,48.0,40.5,53.6,46.9,36.5,99,96,85,30.18,29.96,4,0,7,0.00
2013-12-6,54.1,43.8,33.8,53.8,41.6,31.6,99,92,72,30.16,29.88,14,2,14,0.36
2013-12-7,36.9,33.3,28.0,31.8,27.8,19.8,94,80,65,30.53,30.10,10,2,12,0.39
2013-12-8,30.4,27.5,21.0,25.5,20.6,17.8,91,75,67,30.62,30.43,6,0,7,0.00
2013-12-9,34.3,31.2,27.1,33.8,30.2,25.3,98,96,91,30.44,29.97,9,1,10,0.08
2013-12-10,34.2,30.4,24.6,32.2,28.3,18.5,98,92,76,30.09,29.85,12,1,15,0.01
2013-12-11,30.7,25.7,21.0,22.5,17.9,15.6,83,72,61,30.29,30.09,14,3,18,0.00
2013-12-12,25.3,20.6,13.8,17.2,11.0,6.8,84,67,50,30.35,30.14,12,2,14,0.00
2013-12-13,31.6,24.7,18.0,20.1,13.6,7.5,76,63,52,30.37,30.09,18,4,21,0.00
2013-12-14,22.8,19.0,15.3,17.6,14.7,12.2,92,84,66,30.54,29.93,7,1,8,0.00
2013-12-15,36.1,28.8,19.6,30.9,25.2,17.6,96,87,70,29.94,29.53,17,2,17,0.01
2013-12-16,29.5,23.0,11.5,22.1,12.5,7.5,85,65,48,30.24,29.80,16,4,19,0.00
2013-12-17,21.0,16.1,7.3,18.0,13.2,4.5,92,88,85,30.25,29.96,8,0,8,0.00
2013-12-18,33.4,25.5,18.0,23.9,19.7,15.1,88,79,62,30.16,29.95,13,2,13,0.00
2013-12-19,42.3,31.6,21.7,30.0,24.3,17.8,89,75,53,30.18,30.02,13,1,14,0.14
2013-12-20,48.9,38.4,29.5,35.8,31.4,27.3,93,77,53,30.13,29.97,7,0,8,0.33
2013-12-21,58.3,45.8,36.0,46.9,40.6,33.1,98,83,64,30.01,29.90,7,1,10,0.11
2013-12-22,66.6,59.6,45.5,61.9,56.0,44.2,99,88,77,29.97,29.76,18,4,21,0.00
2013-12-23,59.4,50.6,36.3,56.1,48.7,31.6,99,94,83,30.15,29.90,13,1,16,0.10
2013-12-24,36.3,31.2,23.7,31.6,23.3,11.1,85,72,55,30.32,30.10,13,3,15,0.00
2013-12-25,25.3,20.9,15.8,15.3,9.2,4.6,75,61,46,30.54,30.32,17,2,17,0.00
2013-12-26,31.5,26.5,21.4,26.2,21.8,14.2,92,82,70,30.46,30.16,11,1,11,0.00
2013-12-27,36.0,29.6,23.2,24.4,21.7,18.3,92,73,51,30.36,30.26,12,2,12,0.01
2013-12-28,48.7,34.7,25.2,29.5,25.7,22.1,89,71,44,30.28,30.07,14,2,18,0.00
2013-12-29,41.7,38.0,34.3,39.2,33.6,28.6,98,85,66,30.08,29.47,12,2,15,0.43
2013-12-30,40.6,31.9,17.2,35.6,25.5,9.7,96,78,61,30.21,29.68,14,3,15,0.02
2013-12-31,28.0,21.7,15.6,22.1,13.0,8.4,80,69,51,30.27,30.06,15,2,16,0.00
2014-1-1,29.3,24.5,18.9,20.3,13.6,8.2,77,63,52,30.42,30.26,11,2,14,0.00
2014-1-2,26.4,19.2,11.7,21.0,15.4,8.6,89,85,76,30.31,29.74,8,-6,10,0.00